createdAt,value
2022-09-16T00:01:00.296Z,73.65
2022-09-16T00:03:27.857Z,74.30
2022-09-16T00:05:55.158Z,74.09
2022-09-16T00:08:23.150Z,74.75
2022-09-16T00:10:51.091Z,74.93
2022-09-16T00:13:19.205Z,74.92
2022-09-16T00:15:49.271Z,75.56
2022-09-16T00:18:16.832Z,74.90
2022-09-16T00:20:50.379Z,74.91
2022-09-16T00:23:19.271Z,74.92
2022-09-16T00:25:59.520Z,75.36
2022-09-16T00:28:26.806Z,75.21
2022-09-16T00:30:54.244Z,75.01
2022-09-16T00:33:21.682Z,74.78
2022-09-16T00:35:48.900Z,74.26
2022-09-16T00:38:16.210Z,74.60
2022-09-16T00:40:50.764Z,74.62
2022-09-16T00:43:20.130Z,75.14
2022-09-16T00:46:03.109Z,74.95
2022-09-16T00:48:32.402Z,75.36
2022-09-16T00:51:05.295Z,75.30
2022-09-16T00:53:52.130Z,74.72
2022-09-16T00:56:23.805Z,74.10
2022-09-16T00:58:54.969Z,74.90
2022-09-16T01:01:22.872Z,74.81
2022-09-16T01:03:59.229Z,75.09
2022-09-16T01:06:27.574Z,75.00
2022-09-16T01:08:57.744Z,74.43
2022-09-16T01:11:25.760Z,73.75
2022-09-16T01:13:53.634Z,74.31
2022-09-16T01:16:34.029Z,74.19
2022-09-16T01:19:21.673Z,74.89
2022-09-16T01:22:03.643Z,75.06
2022-09-16T01:24:54.526Z,75.04
2022-09-16T01:27:39.589Z,74.43
2022-09-16T01:30:41.707Z,74.45
2022-09-16T01:33:35.829Z,74.61
2022-09-16T01:36:28.593Z,75.16
2022-09-16T01:39:41.743Z,75.13
2022-09-16T01:42:21.051Z,75.17
2022-09-16T01:44:57.181Z,74.93
2022-09-16T01:48:17.805Z,75.26
2022-09-16T01:51:09.246Z,74.49
2022-09-16T02:11:33.100Z,75.75
2022-09-16T02:14:18.706Z,75.64
2022-09-16T02:17:20.937Z,75.75
2022-09-16T02:20:18.145Z,75.98
2022-09-16T02:22:52.447Z,75.88
2022-09-16T02:25:20.401Z,74.84
2022-09-16T02:27:50.060Z,74.95
2022-09-16T02:30:21.549Z,75.69
2022-09-16T02:33:10.412Z,75.32
2022-09-16T02:35:39.852Z,75.73
2022-09-16T02:38:23.228Z,75.74
2022-09-16T02:40:57.702Z,75.26
2022-09-16T02:43:26.605Z,75.33
2022-09-16T02:46:21.882Z,75.43
2022-09-16T02:49:15.875Z,75.52
2022-09-16T02:52:20.987Z,75.18
2022-09-16T02:55:06.851Z,74.94
2022-09-16T02:57:34.152Z,75.51
2022-09-16T03:00:01.605Z,75.97
2022-09-16T03:02:29.127Z,75.78
2022-09-16T03:04:57.252Z,76.16
2022-09-16T03:07:24.514Z,76.37
2022-09-16T03:09:52.366Z,76.23
2022-09-16T03:12:54.032Z,75.23
2022-09-16T03:15:43.213Z,75.04
2022-09-16T03:18:22.953Z,75.56
2022-09-16T03:21:21.975Z,74.88
2022-09-16T03:24:19.006Z,75.45
2022-09-16T03:27:12.083Z,75.85
2022-09-16T03:29:50.680Z,75.45
2022-09-16T03:32:43.711Z,75.19
2022-09-16T03:35:27.827Z,75.96
2022-09-16T03:38:00.780Z,75.54
2022-09-16T03:40:30.774Z,74.99
2022-09-16T03:42:58.959Z,74.72
2022-09-16T03:45:26.662Z,74.50
2022-09-16T03:47:54.342Z,74.05
2022-09-16T03:50:23.409Z,73.95
2022-09-16T03:52:50.607Z,73.63
2022-09-16T03:55:18.093Z,73.93
2022-09-16T03:57:45.294Z,73.64
2022-09-16T04:00:13.207Z,73.91
2022-09-16T04:02:40.476Z,73.17
2022-09-16T04:05:09.036Z,73.52
2022-09-16T04:07:37.005Z,73.19
2022-09-16T04:10:06.106Z,72.34
2022-09-16T04:12:33.938Z,72.73
2022-09-16T04:15:01.285Z,72.44
2022-09-16T04:17:32.266Z,72.90
2022-09-16T04:19:59.843Z,73.00
2022-09-16T04:22:32.679Z,73.12
2022-09-16T04:25:00.090Z,72.76
2022-09-16T04:27:27.539Z,72.41
2022-09-16T04:29:54.788Z,72.65
2022-09-16T04:32:22.098Z,72.76
2022-09-16T04:34:49.415Z,72.87
2022-09-16T04:37:16.803Z,73.11
2022-09-16T04:39:44.021Z,72.54
2022-09-16T04:42:12.706Z,72.24
2022-09-16T04:44:40.584Z,73.02
2022-09-16T04:47:08.022Z,72.42
2022-09-16T04:49:35.337Z,72.21
2022-09-16T04:52:02.954Z,72.28
2022-09-16T04:54:30.387Z,72.44
2022-09-16T04:56:57.819Z,72.33
2022-09-16T04:59:25.086Z,71.94
2022-09-16T05:01:52.437Z,72.40
2022-09-16T05:04:19.820Z,73.19
2022-09-16T05:06:47.056Z,73.33
2022-09-16T05:09:14.328Z,73.39
2022-09-16T05:11:42.355Z,72.71
2022-09-16T05:14:16.178Z,73.03
2022-09-16T05:16:44.268Z,72.66
2022-09-16T05:19:13.941Z,72.96
2022-09-16T05:21:42.119Z,73.30
2022-09-16T05:24:12.427Z,73.24
2022-09-16T05:26:44.735Z,72.82
2022-09-16T05:29:17.557Z,72.70
2022-09-16T05:31:49.391Z,72.90
2022-09-16T05:34:23.278Z,72.95
2022-09-16T05:36:54.053Z,73.13
2022-09-16T05:39:24.071Z,73.20
2022-09-16T05:41:56.949Z,73.06
2022-09-16T05:44:24.925Z,73.77
2022-09-16T05:46:52.934Z,73.83
2022-09-16T05:49:23.877Z,73.50
2022-09-16T05:51:51.586Z,74.20
2022-09-16T05:54:19.937Z,73.93
2022-09-16T05:56:48.359Z,74.08
2022-09-16T05:59:17.242Z,75.31
2022-09-16T06:01:45.498Z,73.84
2022-09-16T06:04:16.746Z,73.13
2022-09-16T06:06:46.902Z,73.12
2022-09-16T06:09:23.819Z,73.16
2022-09-16T06:11:57.995Z,71.25
2022-09-16T06:14:28.302Z,73.78
2022-09-16T06:16:55.717Z,71.76
2022-09-16T06:19:23.132Z,72.10
2022-09-16T06:21:50.450Z,71.80
2022-09-16T06:24:20.317Z,69.44
2022-09-16T06:26:49.341Z,68.81
2022-09-16T06:29:17.650Z,68.66
2022-09-16T06:31:44.990Z,68.62
2022-09-16T06:34:18.547Z,68.65
2022-09-16T06:36:46.539Z,68.11
2022-09-16T06:39:16.226Z,67.40
2022-09-16T06:41:44.243Z,66.80
2022-09-16T06:44:11.641Z,66.35
2022-09-16T06:46:39.150Z,66.52
2022-09-16T06:49:06.835Z,65.93
2022-09-16T06:51:35.251Z,65.78
2022-09-16T06:54:08.482Z,64.82
2022-09-16T06:56:37.715Z,64.51
2022-09-16T06:59:05.616Z,63.87
2022-09-16T07:01:33.444Z,63.93
2022-09-16T07:04:05.754Z,62.91
2022-09-16T07:09:22.365Z,62.35
2022-09-16T07:11:49.647Z,61.37
2022-09-16T07:14:16.875Z,62.77
2022-09-16T07:16:44.176Z,60.91
2022-09-16T07:19:11.465Z,61.10
2022-09-16T07:21:38.749Z,59.95
2022-09-16T07:24:06.085Z,56.99
2022-09-16T07:26:37.737Z,58.64
2022-09-16T07:29:06.907Z,58.58
2022-09-16T07:31:37.332Z,58.99
2022-09-16T07:34:07.774Z,58.74
2022-09-16T07:36:45.093Z,58.26
2022-09-16T07:39:15.670Z,57.70
2022-09-16T07:41:45.355Z,59.42
2022-09-16T07:44:15.930Z,59.69
2022-09-16T07:46:43.400Z,60.35
2022-09-16T07:49:19.265Z,60.18
2022-09-16T07:51:46.539Z,60.58
2022-09-16T07:54:20.239Z,57.17
2022-09-16T07:56:48.039Z,58.40
2022-09-16T07:59:19.303Z,58.69
2022-09-16T08:01:49.172Z,57.28
2022-09-16T08:04:18.203Z,57.76
2022-09-16T08:06:45.476Z,59.09
2022-09-16T08:09:37.625Z,57.60
2022-09-16T08:12:02.865Z,57.23
2022-09-16T08:14:30.212Z,55.67
2022-09-16T08:16:57.950Z,56.43
2022-09-16T08:19:25.257Z,58.03
2022-09-16T08:21:52.525Z,57.42
2022-09-16T08:24:19.960Z,57.23
2022-09-16T08:26:47.264Z,57.80
2022-09-16T08:29:14.727Z,57.09
2022-09-16T08:31:42.182Z,56.93
2022-09-16T08:34:09.531Z,56.97
2022-09-16T08:36:36.794Z,57.52
2022-09-16T08:39:04.305Z,57.90
2022-09-16T08:42:02.426Z,57.33
2022-09-16T08:44:50.656Z,57.90
2022-09-16T08:47:42.666Z,58.50
2022-09-16T08:50:36.891Z,57.48
2022-09-16T08:53:17.873Z,58.22
2022-09-16T08:55:51.885Z,57.96
2022-09-16T08:58:40.402Z,57.04
2022-09-16T09:01:33.764Z,57.17
2022-09-16T09:04:02.621Z,57.10
2022-09-16T09:06:50.821Z,58.49
2022-09-16T09:10:07.143Z,55.78
2022-09-16T09:12:51.561Z,57.77
2022-09-16T09:15:44.944Z,59.88
2022-09-16T09:18:30.101Z,57.41
2022-09-16T09:21:10.304Z,56.15
2022-09-16T09:24:08.486Z,57.75
2022-09-16T09:26:50.509Z,57.30
2022-09-16T09:29:26.645Z,58.25
2022-09-16T09:32:24.555Z,57.95
2022-09-16T09:35:00.736Z,57.53
2022-09-16T09:37:49.392Z,57.81
2022-09-16T09:40:32.910Z,58.06
2022-09-16T09:43:27.351Z,59.07
2022-09-16T09:46:08.605Z,59.01
2022-09-16T09:48:43.343Z,58.43
2022-09-16T09:51:43.573Z,58.45
2022-09-16T09:54:27.504Z,57.98
2022-09-16T09:57:24.838Z,58.90
2022-09-16T10:00:12.583Z,59.98
2022-09-16T10:02:49.541Z,56.95
2022-09-16T10:05:27.233Z,58.03
2022-09-16T10:08:00.505Z,58.05
2022-09-16T10:10:33.695Z,54.34
2022-09-16T10:13:13.102Z,56.44
2022-09-16T10:15:41.012Z,56.13
2022-09-16T10:18:30.148Z,53.66
2022-09-16T10:21:07.929Z,54.92
2022-09-16T10:23:36.627Z,56.09
2022-09-16T10:26:28.354Z,54.97
2022-09-16T10:29:19.632Z,55.19
2022-09-16T10:31:47.438Z,56.55
2022-09-16T10:34:34.620Z,55.49
2022-09-16T10:37:17.360Z,54.71
2022-09-16T10:39:53.654Z,55.04
2022-09-16T10:42:29.571Z,54.69
2022-09-16T10:45:30.148Z,54.91
2022-09-16T10:48:07.282Z,54.21
2022-09-16T10:50:34.925Z,54.65
2022-09-16T10:53:02.249Z,53.97
2022-09-16T10:55:38.042Z,54.38
2022-09-16T10:58:17.941Z,51.58
2022-09-16T11:01:02.915Z,54.34
2022-09-16T11:03:55.288Z,54.45
2022-09-16T11:06:51.183Z,55.44
2022-09-16T11:10:04.566Z,54.96
2022-09-16T11:12:52.774Z,53.54
2022-09-16T11:15:43.319Z,55.22
2022-09-16T11:18:31.109Z,52.75
2022-09-16T11:21:15.547Z,54.19
2022-09-16T11:24:09.457Z,55.83
2022-09-16T11:27:21.652Z,56.06
2022-09-16T11:30:00.330Z,55.02
2022-09-16T11:33:01.380Z,56.19
2022-09-16T11:35:57.338Z,54.18
2022-09-16T11:38:55.306Z,53.79
2022-09-16T11:42:09.274Z,55.31
2022-09-16T11:44:58.662Z,55.76
2022-09-16T11:48:06.083Z,53.90
2022-09-16T11:50:48.451Z,54.71
2022-09-16T11:53:43.960Z,56.54
2022-09-16T11:56:22.082Z,55.03
2022-09-16T11:59:28.591Z,53.40
2022-09-16T12:02:36.628Z,55.73
2022-09-16T12:05:17.580Z,54.66
2022-09-16T12:08:25.524Z,55.07
2022-09-16T12:10:59.962Z,56.25
2022-09-16T12:13:39.820Z,55.32
2022-09-16T12:16:18.996Z,54.82
2022-09-16T12:18:57.845Z,54.48
2022-09-16T12:21:36.155Z,55.12
2022-09-16T12:24:25.066Z,54.68
2022-09-16T12:27:12.737Z,54.92
2022-09-16T12:30:03.562Z,55.51
2022-09-16T12:33:02.150Z,54.76
2022-09-16T12:35:58.442Z,55.51
2022-09-16T12:38:25.988Z,55.03
2022-09-16T12:41:05.244Z,55.38
2022-09-16T12:43:45.774Z,57.17
2022-09-16T12:46:50.027Z,54.62
2022-09-16T12:49:36.579Z,55.92
2022-09-16T12:52:15.846Z,54.89
2022-09-16T12:55:23.309Z,55.86
2022-09-16T12:58:16.669Z,55.75
2022-09-16T13:01:21.091Z,56.16
2022-09-16T13:04:11.314Z,56.60
2022-09-16T13:06:49.287Z,55.97
2022-09-16T13:09:25.834Z,56.91
2022-09-16T13:15:08.219Z,55.94
2022-09-16T13:17:39.118Z,56.79
2022-09-16T13:20:33.853Z,56.36
2022-09-16T13:23:24.720Z,56.33
2022-09-16T13:26:08.056Z,56.80
2022-09-16T13:28:39.100Z,56.37
2022-09-16T13:31:15.364Z,55.92
2022-09-16T13:34:15.862Z,57.28
2022-09-16T13:36:43.651Z,56.91
2022-09-16T13:39:27.941Z,58.12
2022-09-16T13:41:55.502Z,57.88
2022-09-16T13:44:38.571Z,56.89
2022-09-16T13:47:14.649Z,56.65
2022-09-16T13:49:54.317Z,56.87
2022-09-16T13:52:34.679Z,56.35
2022-09-16T13:55:10.562Z,56.65
2022-09-16T13:57:56.625Z,56.44
2022-09-16T14:00:53.138Z,55.88
2022-09-16T14:03:32.619Z,56.48
2022-09-16T14:06:31.266Z,55.69
2022-09-16T14:09:09.395Z,56.43
2022-09-16T14:12:03.967Z,55.64
2022-09-16T14:14:46.763Z,55.67
2022-09-16T14:17:28.608Z,55.93
2022-09-16T14:20:01.078Z,55.36
2022-09-16T14:22:29.004Z,55.75
2022-09-16T14:25:06.098Z,55.82
2022-09-16T14:27:39.764Z,55.75
2022-09-16T14:30:17.288Z,55.60
2022-09-16T14:32:47.034Z,55.35
2022-09-16T14:35:27.068Z,55.25
2022-09-16T14:38:02.474Z,54.84
2022-09-16T14:40:30.175Z,55.45
2022-09-16T14:43:08.049Z,55.65
2022-09-16T14:45:37.970Z,55.72
2022-09-16T14:48:12.413Z,54.80
2022-09-16T14:50:46.711Z,54.31
2022-09-16T14:53:41.660Z,54.14
2022-09-16T14:56:20.041Z,53.95
2022-09-16T14:58:48.168Z,54.04
2022-09-16T15:01:37.953Z,54.12
2022-09-16T15:04:18.584Z,55.06
2022-09-16T15:06:53.770Z,55.11
2022-09-16T15:09:58.332Z,53.37
2022-09-16T15:12:35.812Z,54.42
2022-09-16T15:15:16.036Z,54.63
2022-09-16T15:17:43.417Z,54.95
2022-09-16T15:20:26.650Z,55.16
2022-09-16T15:22:55.068Z,54.57
2022-09-16T15:25:34.359Z,55.00
2022-09-16T15:28:19.414Z,55.12
2022-09-16T15:30:50.285Z,55.72
2022-09-16T15:33:34.509Z,55.99
2022-09-16T15:36:03.021Z,56.32
2022-09-16T15:38:31.407Z,56.30
2022-09-16T15:41:03.311Z,56.42
2022-09-16T15:43:40.187Z,56.75
2022-09-16T15:46:22.115Z,57.33
2022-09-16T15:48:57.107Z,57.11
2022-09-16T15:51:35.110Z,57.44
2022-09-16T15:54:54.269Z,56.99
2022-09-16T15:57:35.196Z,57.52
2022-09-16T16:00:16.212Z,57.56
2022-09-16T16:02:57.206Z,57.43
2022-09-16T16:05:31.209Z,58.07
2022-09-16T16:08:07.650Z,58.16
2022-09-16T16:10:38.433Z,58.62
2022-09-16T16:13:05.633Z,57.93
2022-09-16T16:15:39.009Z,57.72
2022-09-16T16:18:10.760Z,57.92
2022-09-16T16:20:39.059Z,57.89
2022-09-16T16:23:07.226Z,58.48
2022-09-16T16:25:34.491Z,57.68
2022-09-16T16:28:02.016Z,58.63
2022-09-16T16:30:29.272Z,57.44
2022-09-16T16:32:56.467Z,57.75
2022-09-16T16:35:23.658Z,57.64
2022-09-16T16:37:50.837Z,57.09
2022-09-16T16:40:18.133Z,58.28
2022-09-16T16:42:45.815Z,58.10
2022-09-16T16:45:14.581Z,57.47
2022-09-16T16:47:42.993Z,57.06
2022-09-16T16:50:11.014Z,56.93
2022-09-16T16:52:38.835Z,57.47
2022-09-16T16:55:07.072Z,57.66
2022-09-16T16:57:34.376Z,57.36
2022-09-16T17:00:01.780Z,57.62
2022-09-16T17:02:29.052Z,57.79
2022-09-16T17:04:56.301Z,57.95
2022-09-16T17:07:26.561Z,58.03
2022-09-16T17:09:57.531Z,57.95
2022-09-16T17:12:25.681Z,58.22
2022-09-16T17:14:52.923Z,57.95
2022-09-16T17:17:20.253Z,58.25
2022-09-16T17:19:47.454Z,58.35
2022-09-16T17:22:14.772Z,58.69
2022-09-16T17:24:42.010Z,59.04
2022-09-16T17:27:09.249Z,58.81
2022-09-16T17:29:36.484Z,58.97
2022-09-16T17:32:03.869Z,59.51
2022-09-16T17:34:31.994Z,59.80
2022-09-16T17:36:59.403Z,60.45
2022-09-16T17:39:27.028Z,59.82
2022-09-16T17:41:56.937Z,60.26
2022-09-16T17:44:24.927Z,60.27
2022-09-16T17:46:52.172Z,60.75
2022-09-16T17:49:24.750Z,60.66
2022-09-16T17:51:53.864Z,60.54
2022-09-16T17:54:21.948Z,60.61
2022-09-16T17:56:49.276Z,61.33
2022-09-16T17:59:19.188Z,61.26
2022-09-16T18:01:47.183Z,61.29
2022-09-16T18:04:14.450Z,61.44
2022-09-16T18:06:46.984Z,61.56
2022-09-16T18:09:16.610Z,62.15
2022-09-16T18:11:44.988Z,62.91
2022-09-16T18:14:14.418Z,62.36
2022-09-16T18:16:42.220Z,62.47
2022-09-16T18:19:09.865Z,63.02
2022-09-16T18:21:38.263Z,63.41
2022-09-16T18:24:11.073Z,63.23
2022-09-16T18:26:39.024Z,62.85
2022-09-16T18:29:10.072Z,64.42
2022-09-16T18:31:41.024Z,63.51
2022-09-16T18:34:09.013Z,63.45
2022-09-16T18:36:37.782Z,63.62
2022-09-16T18:39:07.797Z,63.66
2022-09-16T18:41:40.606Z,63.71
2022-09-16T18:44:17.207Z,63.72
2022-09-16T18:46:44.450Z,64.06
2022-09-16T18:49:14.873Z,63.51
2022-09-16T18:51:51.670Z,64.01
2022-09-16T18:54:29.266Z,63.99
2022-09-16T18:57:01.933Z,64.44
2022-09-16T18:59:32.323Z,64.26
2022-09-16T19:02:02.816Z,64.06
2022-09-16T19:04:36.968Z,64.55
2022-09-16T19:07:08.259Z,64.86
2022-09-16T19:09:39.810Z,65.33
2022-09-16T19:12:12.740Z,65.56
2022-09-16T19:14:41.042Z,66.96
2022-09-16T19:17:08.516Z,67.42
2022-09-16T19:19:35.992Z,67.67
2022-09-16T19:22:06.009Z,68.52
2022-09-16T19:24:34.181Z,67.94
2022-09-16T19:27:01.414Z,68.58
2022-09-16T19:29:28.736Z,69.17
2022-09-16T19:31:56.299Z,69.42
2022-09-16T19:34:23.647Z,69.96
2022-09-16T19:36:51.662Z,70.39
2022-09-16T19:39:21.190Z,70.26
2022-09-16T19:41:48.728Z,70.33
2022-09-16T19:44:18.112Z,70.03
2022-09-16T19:46:49.390Z,70.52
2022-09-16T19:49:23.152Z,70.72
2022-09-16T19:51:52.974Z,71.37
2022-09-16T19:54:24.028Z,71.02
2022-09-16T19:56:51.745Z,70.82
2022-09-16T19:59:20.356Z,71.21
2022-09-16T20:01:48.456Z,71.52
2022-09-16T20:04:19.818Z,71.52
2022-09-16T20:06:47.987Z,71.60
2022-09-16T20:09:15.208Z,71.68
2022-09-16T20:11:45.748Z,71.89
2022-09-16T20:14:20.522Z,71.98
2022-09-16T20:16:49.921Z,71.85
2022-09-16T20:19:19.999Z,72.10
2022-09-16T20:21:47.395Z,72.13
2022-09-16T20:24:21.218Z,71.82
2022-09-16T20:26:51.005Z,71.79
2022-09-16T20:29:20.036Z,71.27
2022-09-16T20:31:50.172Z,71.71
2022-09-16T20:34:17.774Z,72.52
2022-09-16T20:36:46.207Z,72.89
2022-09-16T20:39:15.127Z,73.41
2022-09-16T20:41:45.683Z,74.37
2022-09-16T20:44:16.689Z,74.58
2022-09-16T20:46:44.506Z,74.45
2022-09-16T20:49:16.145Z,74.05
2022-09-16T20:51:43.862Z,73.63
2022-09-16T20:54:14.616Z,72.50
2022-09-16T20:56:45.067Z,72.36
2022-09-16T20:59:15.246Z,72.06
2022-09-16T21:01:43.275Z,71.15
2022-09-16T21:04:17.981Z,71.37
2022-09-16T21:06:46.401Z,71.10
2022-09-16T21:09:16.268Z,70.34
2022-09-16T21:11:45.047Z,71.56
2022-09-16T21:14:17.650Z,71.68
2022-09-16T21:16:47.209Z,71.49
2022-09-16T21:19:15.294Z,72.30
2022-09-16T21:21:47.607Z,72.16
2022-09-16T21:24:16.446Z,72.07
2022-09-16T21:26:45.398Z,72.76
2022-09-16T21:29:20.288Z,72.11
2022-09-16T21:31:48.941Z,71.81
2022-09-16T21:34:21.379Z,71.36
2022-09-16T21:36:50.049Z,71.21
2022-09-16T21:39:19.874Z,71.11
2022-09-16T21:41:48.789Z,70.71
2022-09-16T21:44:16.714Z,70.85
2022-09-16T21:46:46.440Z,71.38
2022-09-16T21:49:24.385Z,71.49
2022-09-16T21:51:58.070Z,71.97
2022-09-16T21:54:26.766Z,72.03
2022-09-16T21:56:54.335Z,70.71
2022-09-16T21:59:21.876Z,70.81
2022-09-16T22:01:50.901Z,71.40
2022-09-16T22:04:22.780Z,71.58
2022-09-16T22:06:52.827Z,72.22
2022-09-16T22:09:20.327Z,72.37
2022-09-16T22:11:47.905Z,71.32
2022-09-16T22:14:16.273Z,71.58
2022-09-16T22:16:44.245Z,71.08
2022-09-16T22:19:17.098Z,71.26
2022-09-16T22:21:47.407Z,70.55
2022-09-16T22:24:20.791Z,69.91
2022-09-16T22:26:50.762Z,70.21
2022-09-16T22:29:18.223Z,69.86
2022-09-16T22:31:45.526Z,69.89
2022-09-16T22:34:12.991Z,69.73
2022-09-16T22:36:40.390Z,69.69
2022-09-16T22:39:14.526Z,70.16
2022-09-16T22:41:42.218Z,70.07
2022-09-16T22:44:09.588Z,69.96
2022-09-16T22:46:46.983Z,70.29
2022-09-16T22:49:21.804Z,69.96
2022-09-16T22:51:49.173Z,70.17
2022-09-16T22:54:16.756Z,70.30
2022-09-16T22:56:45.065Z,68.96
2022-09-16T22:59:19.676Z,68.96
2022-09-16T23:01:47.919Z,69.03
2022-09-16T23:04:15.599Z,68.71
2022-09-16T23:06:43.334Z,68.47
2022-09-16T23:09:13.162Z,69.10
2022-09-16T23:11:40.549Z,68.19
2022-09-16T23:14:10.842Z,68.38
2022-09-16T23:16:38.812Z,68.02
2022-09-16T23:19:10.473Z,68.43
2022-09-16T23:21:39.295Z,68.67
2022-09-16T23:24:09.252Z,68.85
2022-09-16T23:26:38.630Z,69.53
2022-09-16T23:29:09.017Z,68.24
2022-09-16T23:31:40.483Z,68.04
2022-09-16T23:34:17.706Z,67.43
2022-09-16T23:36:45.848Z,66.63
2022-09-16T23:39:15.479Z,66.45
2022-09-16T23:41:43.658Z,66.61
2022-09-16T23:44:14.019Z,65.86
2022-09-16T23:46:41.710Z,65.82
2022-09-16T23:49:10.490Z,65.96
2022-09-16T23:51:38.033Z,65.98
2022-09-16T23:54:05.346Z,66.20
2022-09-16T23:56:32.843Z,65.92
2022-09-16T23:59:01.236Z,65.63
